sensor_id;sensor_type;location;lat;lon;timestamp;temperature;humidity
15199;DHT22;7700;48.654;9.070;2024-02-26T00:02:20;5.90;99.90
15199;DHT22;7700;48.654;9.070;2024-02-26T00:04:46;5.90;99.90
15199;DHT22;7700;48.654;9.070;2024-02-26T00:07:11;5.90;99.90
15199;DHT22;7700;48.654;9.070;2024-02-26T00:09:37;5.90;99.90
15199;DHT22;7700;48.654;9.070;2024-02-26T00:12:03;5.90;99.90
15199;DHT22;7700;48.654;9.070;2024-02-26T00:14:29;5.80;99.90
15199;DHT22;7700;48.654;9.070;2024-02-26T00:16:55;5.80;99.90
15199;DHT22;7700;48.654;9.070;2024-02-26T00:19:20;5.70;99.90
15199;DHT22;7700;48.654;9.070;2024-02-26T00:21:46;5.60;99.90
15199;DHT22;7700;48.654;9.070;2024-02-26T00:24:11;5.60;99.90
15199;DHT22;7700;48.654;9.070;2024-02-26T00:26:37;5.50;99.90
15199;DHT22;7700;48.654;9.070;2024-02-26T00:29:03;5.50;99.90
15199;DHT22;7700;48.654;9.070;2024-02-26T00:31:28;5.60;99.90
15199;DHT22;7700;48.654;9.070;2024-02-26T00:33:54;5.60;99.90
15199;DHT22;7700;48.654;9.070;2024-02-26T00:36:19;5.70;99.90
15199;DHT22;7700;48.654;9.070;2024-02-26T00:38:45;5.70;99.90
15199;DHT22;7700;48.654;9.070;2024-02-26T00:41:16;5.70;99.90
15199;DHT22;7700;48.654;9.070;2024-02-26T00:43:42;5.70;99.90
15199;DHT22;7700;48.654;9.070;2024-02-26T00:46:08;5.80;99.90
15199;DHT22;7700;48.654;9.070;2024-02-26T00:48:33;5.80;99.90
15199;DHT22;7700;48.654;9.070;2024-02-26T00:50:59;5.80;99.90
15199;DHT22;7700;48.654;9.070;2024-02-26T00:53:24;5.80;99.90
15199;DHT22;7700;48.654;9.070;2024-02-26T00:55:50;5.90;99.90
15199;DHT22;7700;48.654;9.070;2024-02-26T00:58:16;5.90;99.90
15199;DHT22;7700;48.654;9.070;2024-02-26T01:00:42;5.90;99.90
15199;DHT22;7700;48.654;9.070;2024-02-26T01:03:07;5.80;99.90
15199;DHT22;7700;48.654;9.070;2024-02-26T01:05:33;5.70;99.90
15199;DHT22;7700;48.654;9.070;2024-02-26T01:07:59;5.70;99.90
15199;DHT22;7700;48.654;9.070;2024-02-26T01:10:24;5.50;99.90
15199;DHT22;7700;48.654;9.070;2024-02-26T01:12:50;5.40;99.90
15199;DHT22;7700;48.654;9.070;2024-02-26T01:15:15;5.40;99.90
15199;DHT22;7700;48.654;9.070;2024-02-26T01:17:41;5.30;99.90
15199;DHT22;7700;48.654;9.070;2024-02-26T01:20:07;5.30;99.90
15199;DHT22;7700;48.654;9.070;2024-02-26T01:22:34;5.40;99.90
15199;DHT22;7700;48.654;9.070;2024-02-26T01:24:59;5.40;99.90
15199;DHT22;7700;48.654;9.070;2024-02-26T01:27:25;5.50;99.90
15199;DHT22;7700;48.654;9.070;2024-02-26T01:29:52;5.60;99.90
15199;DHT22;7700;48.654;9.070;2024-02-26T01:32:18;5.70;99.90
15199;DHT22;7700;48.654;9.070;2024-02-26T01:34:45;5.70;99.90
15199;DHT22;7700;48.654;9.070;2024-02-26T01:37:10;5.80;99.90
15199;DHT22;7700;48.654;9.070;2024-02-26T01:39:36;5.90;99.90
15199;DHT22;7700;48.654;9.070;2024-02-26T01:42:01;5.90;99.90
15199;DHT22;7700;48.654;9.070;2024-02-26T01:44:27;5.90;99.90
15199;DHT22;7700;48.654;9.070;2024-02-26T01:46:54;5.90;99.90
15199;DHT22;7700;48.654;9.070;2024-02-26T01:49:19;6.00;99.90
15199;DHT22;7700;48.654;9.070;2024-02-26T01:51:45;6.10;99.90
15199;DHT22;7700;48.654;9.070;2024-02-26T01:54:11;6.10;99.90
15199;DHT22;7700;48.654;9.070;2024-02-26T01:56:39;6.20;99.90
15199;DHT22;7700;48.654;9.070;2024-02-26T01:59:06;6.20;99.90
15199;DHT22;7700;48.654;9.070;2024-02-26T02:01:34;6.10;99.90
15199;DHT22;7700;48.654;9.070;2024-02-26T02:04:00;6.30;99.90
15199;DHT22;7700;48.654;9.070;2024-02-26T02:06:26;6.40;99.90
15199;DHT22;7700;48.654;9.070;2024-02-26T02:08:54;6.50;99.90
15199;DHT22;7700;48.654;9.070;2024-02-26T02:11:20;6.40;99.90
15199;DHT22;7700;48.654;9.070;2024-02-26T02:13:46;6.30;99.90
15199;DHT22;7700;48.654;9.070;2024-02-26T02:16:12;6.20;99.90
15199;DHT22;7700;48.654;9.070;2024-02-26T02:18:38;6.10;99.90
15199;DHT22;7700;48.654;9.070;2024-02-26T02:21:04;6.10;99.90
15199;DHT22;7700;48.654;9.070;2024-02-26T02:23:29;6.10;99.90
15199;DHT22;7700;48.654;9.070;2024-02-26T02:25:56;6.10;99.90
15199;DHT22;7700;48.654;9.070;2024-02-26T02:28:23;6.00;99.90
15199;DHT22;7700;48.654;9.070;2024-02-26T02:30:50;5.70;99.90
15199;DHT22;7700;48.654;9.070;2024-02-26T02:33:16;5.70;99.90
15199;DHT22;7700;48.654;9.070;2024-02-26T02:35:42;5.70;99.90
15199;DHT22;7700;48.654;9.070;2024-02-26T02:38:08;5.80;99.90
15199;DHT22;7700;48.654;9.070;2024-02-26T02:40:33;5.80;99.90
15199;DHT22;7700;48.654;9.070;2024-02-26T02:42:59;5.70;99.90
15199;DHT22;7700;48.654;9.070;2024-02-26T02:45:25;6.00;99.90
15199;DHT22;7700;48.654;9.070;2024-02-26T02:47:51;6.00;99.90
15199;DHT22;7700;48.654;9.070;2024-02-26T02:50:16;5.90;99.90
15199;DHT22;7700;48.654;9.070;2024-02-26T02:52:42;6.00;99.90
15199;DHT22;7700;48.654;9.070;2024-02-26T02:55:08;6.00;99.90
15199;DHT22;7700;48.654;9.070;2024-02-26T02:57:33;6.00;99.90
15199;DHT22;7700;48.654;9.070;2024-02-26T02:59:59;6.00;99.90
15199;DHT22;7700;48.654;9.070;2024-02-26T03:02:24;6.00;99.90
15199;DHT22;7700;48.654;9.070;2024-02-26T03:04:50;6.10;99.90
15199;DHT22;7700;48.654;9.070;2024-02-26T03:07:16;6.80;99.90
15199;DHT22;7700;48.654;9.070;2024-02-26T03:09:41;7.20;99.90
15199;DHT22;7700;48.654;9.070;2024-02-26T03:12:07;7.40;99.90
15199;DHT22;7700;48.654;9.070;2024-02-26T03:14:33;7.30;99.90
15199;DHT22;7700;48.654;9.070;2024-02-26T03:16:58;7.20;99.90
15199;DHT22;7700;48.654;9.070;2024-02-26T03:19:24;7.10;99.90
15199;DHT22;7700;48.654;9.070;2024-02-26T03:21:49;7.00;99.90
15199;DHT22;7700;48.654;9.070;2024-02-26T03:24:15;7.00;99.90
15199;DHT22;7700;48.654;9.070;2024-02-26T03:26:40;6.90;99.90
15199;DHT22;7700;48.654;9.070;2024-02-26T03:29:06;6.90;99.90
15199;DHT22;7700;48.654;9.070;2024-02-26T03:31:31;7.00;99.90
15199;DHT22;7700;48.654;9.070;2024-02-26T03:33:57;7.00;99.90
15199;DHT22;7700;48.654;9.070;2024-02-26T03:36:22;7.10;99.90
15199;DHT22;7700;48.654;9.070;2024-02-26T03:38:48;7.00;99.90
15199;DHT22;7700;48.654;9.070;2024-02-26T03:41:14;7.00;99.90
15199;DHT22;7700;48.654;9.070;2024-02-26T03:43:40;7.00;99.90
15199;DHT22;7700;48.654;9.070;2024-02-26T03:46:09;7.00;99.90
15199;DHT22;7700;48.654;9.070;2024-02-26T03:48:36;6.90;99.90
15199;DHT22;7700;48.654;9.070;2024-02-26T03:51:02;6.90;99.90
15199;DHT22;7700;48.654;9.070;2024-02-26T03:53:28;6.90;99.90
15199;DHT22;7700;48.654;9.070;2024-02-26T03:55:53;6.90;99.90
15199;DHT22;7700;48.654;9.070;2024-02-26T03:58:20;6.80;99.90
15199;DHT22;7700;48.654;9.070;2024-02-26T04:00:46;6.80;99.90
15199;DHT22;7700;48.654;9.070;2024-02-26T04:03:13;6.80;99.90
15199;DHT22;7700;48.654;9.070;2024-02-26T04:05:38;6.80;99.90
15199;DHT22;7700;48.654;9.070;2024-02-26T04:08:05;6.80;99.90
15199;DHT22;7700;48.654;9.070;2024-02-26T04:10:32;6.80;99.90
15199;DHT22;7700;48.654;9.070;2024-02-26T04:12:58;6.80;99.90
15199;DHT22;7700;48.654;9.070;2024-02-26T04:15:23;6.80;99.90
15199;DHT22;7700;48.654;9.070;2024-02-26T04:17:48;6.80;99.90
15199;DHT22;7700;48.654;9.070;2024-02-26T04:20:15;6.80;99.90
15199;DHT22;7700;48.654;9.070;2024-02-26T04:22:41;6.70;99.90
15199;DHT22;7700;48.654;9.070;2024-02-26T04:25:07;6.70;99.90
15199;DHT22;7700;48.654;9.070;2024-02-26T04:27:32;6.60;99.90
15199;DHT22;7700;48.654;9.070;2024-02-26T04:29:58;6.60;99.90
15199;DHT22;7700;48.654;9.070;2024-02-26T04:32:24;6.60;99.90
15199;DHT22;7700;48.654;9.070;2024-02-26T04:34:49;6.50;99.90
15199;DHT22;7700;48.654;9.070;2024-02-26T04:37:14;6.40;99.90
15199;DHT22;7700;48.654;9.070;2024-02-26T04:39:40;6.40;99.90
15199;DHT22;7700;48.654;9.070;2024-02-26T04:42:05;6.30;99.90
15199;DHT22;7700;48.654;9.070;2024-02-26T04:44:31;6.20;99.90
15199;DHT22;7700;48.654;9.070;2024-02-26T04:46:57;6.20;99.90
15199;DHT22;7700;48.654;9.070;2024-02-26T04:49:22;6.20;99.90
15199;DHT22;7700;48.654;9.070;2024-02-26T04:51:48;6.30;99.90
15199;DHT22;7700;48.654;9.070;2024-02-26T04:54:13;6.20;99.90
15199;DHT22;7700;48.654;9.070;2024-02-26T04:56:39;6.20;99.90
15199;DHT22;7700;48.654;9.070;2024-02-26T04:59:05;6.20;99.90
15199;DHT22;7700;48.654;9.070;2024-02-26T05:01:30;6.20;99.90
15199;DHT22;7700;48.654;9.070;2024-02-26T05:03:56;6.20;99.90
15199;DHT22;7700;48.654;9.070;2024-02-26T05:06:21;6.30;99.90
15199;DHT22;7700;48.654;9.070;2024-02-26T05:08:47;6.30;99.90
15199;DHT22;7700;48.654;9.070;2024-02-26T05:11:12;6.30;99.90
15199;DHT22;7700;48.654;9.070;2024-02-26T05:13:38;6.30;99.90
15199;DHT22;7700;48.654;9.070;2024-02-26T05:16:03;6.30;99.90
15199;DHT22;7700;48.654;9.070;2024-02-26T05:18:29;6.30;99.90
15199;DHT22;7700;48.654;9.070;2024-02-26T05:20:54;6.30;99.90
15199;DHT22;7700;48.654;9.070;2024-02-26T05:23:20;6.30;99.90
15199;DHT22;7700;48.654;9.070;2024-02-26T05:25:46;6.30;99.90
15199;DHT22;7700;48.654;9.070;2024-02-26T05:28:13;6.30;99.90
15199;DHT22;7700;48.654;9.070;2024-02-26T05:30:41;6.40;99.90
15199;DHT22;7700;48.654;9.070;2024-02-26T05:33:06;6.40;99.90
15199;DHT22;7700;48.654;9.070;2024-02-26T05:35:32;6.50;99.90
15199;DHT22;7700;48.654;9.070;2024-02-26T05:37:57;6.50;99.90
15199;DHT22;7700;48.654;9.070;2024-02-26T05:40:23;6.50;99.90
15199;DHT22;7700;48.654;9.070;2024-02-26T05:42:48;6.40;99.90
15199;DHT22;7700;48.654;9.070;2024-02-26T05:45:14;6.40;99.90
15199;DHT22;7700;48.654;9.070;2024-02-26T05:47:40;6.40;99.90
15199;DHT22;7700;48.654;9.070;2024-02-26T05:50:09;6.40;99.90
15199;DHT22;7700;48.654;9.070;2024-02-26T05:52:39;6.30;99.90
15199;DHT22;7700;48.654;9.070;2024-02-26T05:55:05;6.40;99.90
15199;DHT22;7700;48.654;9.070;2024-02-26T05:57:31;6.30;99.90
15199;DHT22;7700;48.654;9.070;2024-02-26T05:59:57;6.20;99.90
15199;DHT22;7700;48.654;9.070;2024-02-26T06:02:26;6.20;99.90
15199;DHT22;7700;48.654;9.070;2024-02-26T06:04:51;6.10;99.90
15199;DHT22;7700;48.654;9.070;2024-02-26T06:07:17;6.00;99.90
15199;DHT22;7700;48.654;9.070;2024-02-26T06:09:42;5.90;99.90
15199;DHT22;7700;48.654;9.070;2024-02-26T06:12:08;5.80;99.90
15199;DHT22;7700;48.654;9.070;2024-02-26T06:14:33;5.60;99.90
15199;DHT22;7700;48.654;9.070;2024-02-26T06:16:59;5.70;99.90
15199;DHT22;7700;48.654;9.070;2024-02-26T06:19:24;5.60;99.90
15199;DHT22;7700;48.654;9.070;2024-02-26T06:21:50;5.60;99.90
15199;DHT22;7700;48.654;9.070;2024-02-26T06:24:16;5.60;99.90
15199;DHT22;7700;48.654;9.070;2024-02-26T06:26:41;5.60;99.90
15199;DHT22;7700;48.654;9.070;2024-02-26T06:29:07;5.60;99.90
15199;DHT22;7700;48.654;9.070;2024-02-26T06:31:32;5.70;99.90
15199;DHT22;7700;48.654;9.070;2024-02-26T06:33:58;5.80;99.90
15199;DHT22;7700;48.654;9.070;2024-02-26T06:36:23;5.80;99.90
15199;DHT22;7700;48.654;9.070;2024-02-26T06:38:49;5.80;99.90
15199;DHT22;7700;48.654;9.070;2024-02-26T06:41:15;5.90;99.90
15199;DHT22;7700;48.654;9.070;2024-02-26T06:43:40;5.90;99.90
15199;DHT22;7700;48.654;9.070;2024-02-26T06:46:06;6.00;99.90
15199;DHT22;7700;48.654;9.070;2024-02-26T06:48:32;6.00;99.90
15199;DHT22;7700;48.654;9.070;2024-02-26T06:50:57;6.00;99.90
15199;DHT22;7700;48.654;9.070;2024-02-26T06:53:23;6.10;99.90
15199;DHT22;7700;48.654;9.070;2024-02-26T06:55:48;6.20;99.90
15199;DHT22;7700;48.654;9.070;2024-02-26T06:58:15;6.30;99.90
15199;DHT22;7700;48.654;9.070;2024-02-26T07:00:41;6.30;99.90
15199;DHT22;7700;48.654;9.070;2024-02-26T07:03:06;6.50;99.90
15199;DHT22;7700;48.654;9.070;2024-02-26T07:05:32;6.80;99.90
15199;DHT22;7700;48.654;9.070;2024-02-26T07:07:57;7.40;99.90
15199;DHT22;7700;48.654;9.070;2024-02-26T07:10:23;7.40;99.90
15199;DHT22;7700;48.654;9.070;2024-02-26T07:12:48;7.20;99.90
15199;DHT22;7700;48.654;9.070;2024-02-26T07:15:14;6.90;99.90
15199;DHT22;7700;48.654;9.070;2024-02-26T07:17:39;6.70;99.90
15199;DHT22;7700;48.654;9.070;2024-02-26T07:20:12;6.50;99.90
15199;DHT22;7700;48.654;9.070;2024-02-26T07:22:38;6.50;99.90
15199;DHT22;7700;48.654;9.070;2024-02-26T07:25:04;6.50;99.90
15199;DHT22;7700;48.654;9.070;2024-02-26T07:27:33;6.40;99.90
15199;DHT22;7700;48.654;9.070;2024-02-26T07:29:58;6.40;99.90
15199;DHT22;7700;48.654;9.070;2024-02-26T07:32:24;6.40;99.90
15199;DHT22;7700;48.654;9.070;2024-02-26T07:34:49;6.40;99.90
15199;DHT22;7700;48.654;9.070;2024-02-26T07:37:15;6.40;99.90
15199;DHT22;7700;48.654;9.070;2024-02-26T07:39:40;6.40;99.90
15199;DHT22;7700;48.654;9.070;2024-02-26T07:42:06;6.40;99.90
15199;DHT22;7700;48.654;9.070;2024-02-26T07:44:33;6.30;99.90
15199;DHT22;7700;48.654;9.070;2024-02-26T07:46:58;6.30;99.90
15199;DHT22;7700;48.654;9.070;2024-02-26T07:49:24;6.30;99.90
15199;DHT22;7700;48.654;9.070;2024-02-26T07:51:49;6.40;99.90
15199;DHT22;7700;48.654;9.070;2024-02-26T07:54:15;6.40;99.90
15199;DHT22;7700;48.654;9.070;2024-02-26T07:56:41;6.50;99.90
15199;DHT22;7700;48.654;9.070;2024-02-26T07:59:07;6.70;99.90
15199;DHT22;7700;48.654;9.070;2024-02-26T08:01:33;6.80;99.90
15199;DHT22;7700;48.654;9.070;2024-02-26T08:03:59;6.90;99.90
15199;DHT22;7700;48.654;9.070;2024-02-26T08:06:25;7.00;99.90
15199;DHT22;7700;48.654;9.070;2024-02-26T08:08:51;7.10;99.90
15199;DHT22;7700;48.654;9.070;2024-02-26T08:11:16;7.30;99.90
15199;DHT22;7700;48.654;9.070;2024-02-26T08:13:42;7.40;99.90
15199;DHT22;7700;48.654;9.070;2024-02-26T08:16:07;7.50;99.90
15199;DHT22;7700;48.654;9.070;2024-02-26T08:18:33;7.50;99.90
15199;DHT22;7700;48.654;9.070;2024-02-26T08:20:58;7.50;99.90
15199;DHT22;7700;48.654;9.070;2024-02-26T08:23:24;7.40;99.90
15199;DHT22;7700;48.654;9.070;2024-02-26T08:25:50;7.40;99.90
15199;DHT22;7700;48.654;9.070;2024-02-26T08:28:16;7.40;99.90
15199;DHT22;7700;48.654;9.070;2024-02-26T08:30:43;7.40;99.90
15199;DHT22;7700;48.654;9.070;2024-02-26T08:33:09;7.50;99.90
15199;DHT22;7700;48.654;9.070;2024-02-26T08:35:35;7.60;99.90
15199;DHT22;7700;48.654;9.070;2024-02-26T08:38:01;7.60;99.90
15199;DHT22;7700;48.654;9.070;2024-02-26T08:40:26;7.70;99.90
15199;DHT22;7700;48.654;9.070;2024-02-26T08:42:52;7.80;99.90
15199;DHT22;7700;48.654;9.070;2024-02-26T08:45:17;8.00;99.90
15199;DHT22;7700;48.654;9.070;2024-02-26T08:47:45;8.20;99.90
15199;DHT22;7700;48.654;9.070;2024-02-26T08:50:10;8.30;99.90
15199;DHT22;7700;48.654;9.070;2024-02-26T08:52:37;8.40;99.90
15199;DHT22;7700;48.654;9.070;2024-02-26T08:55:03;8.50;99.90
15199;DHT22;7700;48.654;9.070;2024-02-26T08:57:31;8.50;99.90
15199;DHT22;7700;48.654;9.070;2024-02-26T08:59:58;8.50;99.90
15199;DHT22;7700;48.654;9.070;2024-02-26T09:02:23;8.60;99.90
15199;DHT22;7700;48.654;9.070;2024-02-26T09:04:49;8.60;99.90
15199;DHT22;7700;48.654;9.070;2024-02-26T09:07:16;8.70;99.90
15199;DHT22;7700;48.654;9.070;2024-02-26T09:09:42;8.80;99.90
15199;DHT22;7700;48.654;9.070;2024-02-26T09:12:07;8.90;99.90
15199;DHT22;7700;48.654;9.070;2024-02-26T09:14:33;9.10;99.90
15199;DHT22;7700;48.654;9.070;2024-02-26T09:16:58;9.10;99.90
15199;DHT22;7700;48.654;9.070;2024-02-26T09:19:25;9.10;99.90
15199;DHT22;7700;48.654;9.070;2024-02-26T09:21:51;9.10;99.90
15199;DHT22;7700;48.654;9.070;2024-02-26T09:24:17;9.20;99.90
15199;DHT22;7700;48.654;9.070;2024-02-26T09:26:42;9.30;99.90
15199;DHT22;7700;48.654;9.070;2024-02-26T09:29:08;9.30;99.90
15199;DHT22;7700;48.654;9.070;2024-02-26T09:31:34;9.30;99.90
15199;DHT22;7700;48.654;9.070;2024-02-26T09:33:59;9.40;99.90
15199;DHT22;7700;48.654;9.070;2024-02-26T09:36:25;9.40;99.90
15199;DHT22;7700;48.654;9.070;2024-02-26T09:38:51;9.60;99.90
15199;DHT22;7700;48.654;9.070;2024-02-26T09:41:16;9.70;99.90
15199;DHT22;7700;48.654;9.070;2024-02-26T09:43:44;9.90;99.90
15199;DHT22;7700;48.654;9.070;2024-02-26T09:46:13;10.20;99.90
15199;DHT22;7700;48.654;9.070;2024-02-26T09:48:42;10.40;99.90
15199;DHT22;7700;48.654;9.070;2024-02-26T09:51:10;10.50;99.90
15199;DHT22;7700;48.654;9.070;2024-02-26T09:53:38;10.70;99.90
15199;DHT22;7700;48.654;9.070;2024-02-26T09:56:08;11.00;99.90
15199;DHT22;7700;48.654;9.070;2024-02-26T09:58:34;11.20;99.90
15199;DHT22;7700;48.654;9.070;2024-02-26T10:03:39;12.00;99.90
15199;DHT22;7700;48.654;9.070;2024-02-26T10:06:07;12.40;99.90
15199;DHT22;7700;48.654;9.070;2024-02-26T10:08:36;12.90;99.90
15199;DHT22;7700;48.654;9.070;2024-02-26T10:11:03;13.60;99.90
15199;DHT22;7700;48.654;9.070;2024-02-26T10:13:29;14.30;99.90
15199;DHT22;7700;48.654;9.070;2024-02-26T10:15:54;14.40;99.90
15199;DHT22;7700;48.654;9.070;2024-02-26T10:18:20;14.40;99.90
15199;DHT22;7700;48.654;9.070;2024-02-26T10:21:01;14.70;99.90
15199;DHT22;7700;48.654;9.070;2024-02-26T10:23:29;14.70;99.90
15199;DHT22;7700;48.654;9.070;2024-02-26T10:25:55;14.30;99.90
15199;DHT22;7700;48.654;9.070;2024-02-26T10:28:21;14.00;99.90
15199;DHT22;7700;48.654;9.070;2024-02-26T10:30:46;13.60;99.90
15199;DHT22;7700;48.654;9.070;2024-02-26T10:33:12;13.50;99.90
15199;DHT22;7700;48.654;9.070;2024-02-26T10:35:40;13.30;99.90
15199;DHT22;7700;48.654;9.070;2024-02-26T10:38:07;12.90;99.90
15199;DHT22;7700;48.654;9.070;2024-02-26T10:40:32;12.50;99.90
15199;DHT22;7700;48.654;9.070;2024-02-26T10:42:58;12.30;99.90
15199;DHT22;7700;48.654;9.070;2024-02-26T10:45:23;12.30;99.90
15199;DHT22;7700;48.654;9.070;2024-02-26T10:47:49;12.30;99.90
15199;DHT22;7700;48.654;9.070;2024-02-26T10:50:15;12.40;99.90
15199;DHT22;7700;48.654;9.070;2024-02-26T10:52:42;12.30;99.90
15199;DHT22;7700;48.654;9.070;2024-02-26T10:55:08;12.30;99.90
15199;DHT22;7700;48.654;9.070;2024-02-26T10:57:40;12.30;99.90
15199;DHT22;7700;48.654;9.070;2024-02-26T11:00:06;12.40;99.90
15199;DHT22;7700;48.654;9.070;2024-02-26T11:02:33;12.50;99.90
15199;DHT22;7700;48.654;9.070;2024-02-26T11:05:03;12.50;99.90
15199;DHT22;7700;48.654;9.070;2024-02-26T11:07:30;12.60;99.90
15199;DHT22;7700;48.654;9.070;2024-02-26T11:09:59;12.80;99.90
15199;DHT22;7700;48.654;9.070;2024-02-26T11:12:25;13.00;99.90
15199;DHT22;7700;48.654;9.070;2024-02-26T11:14:54;13.10;99.90
15199;DHT22;7700;48.654;9.070;2024-02-26T11:17:22;12.90;99.90
15199;DHT22;7700;48.654;9.070;2024-02-26T11:19:50;12.90;99.90
15199;DHT22;7700;48.654;9.070;2024-02-26T11:22:16;12.80;99.90
15199;DHT22;7700;48.654;9.070;2024-02-26T11:24:42;12.70;99.90
15199;DHT22;7700;48.654;9.070;2024-02-26T11:27:10;12.50;99.90
15199;DHT22;7700;48.654;9.070;2024-02-26T11:29:47;12.50;99.90
15199;DHT22;7700;48.654;9.070;2024-02-26T11:32:13;12.50;99.90
15199;DHT22;7700;48.654;9.070;2024-02-26T11:34:39;12.70;99.90
15199;DHT22;7700;48.654;9.070;2024-02-26T11:37:15;12.90;99.90
15199;DHT22;7700;48.654;9.070;2024-02-26T11:39:42;12.90;99.90
15199;DHT22;7700;48.654;9.070;2024-02-26T11:42:08;13.00;99.90
15199;DHT22;7700;48.654;9.070;2024-02-26T11:44:34;13.20;99.90
15199;DHT22;7700;48.654;9.070;2024-02-26T11:47:21;13.30;99.90
15199;DHT22;7700;48.654;9.070;2024-02-26T11:49:48;13.20;99.90
15199;DHT22;7700;48.654;9.070;2024-02-26T11:52:14;13.10;99.90
15199;DHT22;7700;48.654;9.070;2024-02-26T11:54:51;13.20;99.90
15199;DHT22;7700;48.654;9.070;2024-02-26T12:00:10;13.50;99.90
15199;DHT22;7700;48.654;9.070;2024-02-26T12:02:52;13.40;99.90
15199;DHT22;7700;48.654;9.070;2024-02-26T12:05:26;13.30;99.90
15199;DHT22;7700;48.654;9.070;2024-02-26T12:08:00;13.10;99.90
15199;DHT22;7700;48.654;9.070;2024-02-26T12:10:27;12.90;99.90
15199;DHT22;7700;48.654;9.070;2024-02-26T12:15:43;12.90;99.90
15199;DHT22;7700;48.654;9.070;2024-02-26T12:18:09;13.00;99.90
15199;DHT22;7700;48.654;9.070;2024-02-26T12:20:37;13.10;99.90
15199;DHT22;7700;48.654;9.070;2024-02-26T12:23:03;13.30;99.90
15199;DHT22;7700;48.654;9.070;2024-02-26T12:25:32;13.20;99.90
15199;DHT22;7700;48.654;9.070;2024-02-26T12:27:59;13.30;99.90
15199;DHT22;7700;48.654;9.070;2024-02-26T12:30:26;13.50;99.90
15199;DHT22;7700;48.654;9.070;2024-02-26T12:32:53;13.70;99.90
15199;DHT22;7700;48.654;9.070;2024-02-26T12:35:23;13.90;99.90
15199;DHT22;7700;48.654;9.070;2024-02-26T12:37:49;14.30;99.90
15199;DHT22;7700;48.654;9.070;2024-02-26T12:40:17;14.70;99.90
15199;DHT22;7700;48.654;9.070;2024-02-26T12:42:42;15.20;99.90
15199;DHT22;7700;48.654;9.070;2024-02-26T12:45:12;15.50;99.50
15199;DHT22;7700;48.654;9.070;2024-02-26T12:47:44;15.50;99.20
15199;DHT22;7700;48.654;9.070;2024-02-26T12:50:15;15.40;99.40
15199;DHT22;7700;48.654;9.070;2024-02-26T12:52:44;15.30;99.90
15199;DHT22;7700;48.654;9.070;2024-02-26T12:55:15;15.20;99.90
15199;DHT22;7700;48.654;9.070;2024-02-26T12:57:42;15.10;99.90
15199;DHT22;7700;48.654;9.070;2024-02-26T13:00:15;15.20;99.90
15199;DHT22;7700;48.654;9.070;2024-02-26T13:02:42;15.10;99.90
15199;DHT22;7700;48.654;9.070;2024-02-26T13:05:10;15.10;99.60
15199;DHT22;7700;48.654;9.070;2024-02-26T13:07:43;14.90;99.90
15199;DHT22;7700;48.654;9.070;2024-02-26T13:10:10;14.80;99.90
15199;DHT22;7700;48.654;9.070;2024-02-26T13:12:45;14.80;99.90
15199;DHT22;7700;48.654;9.070;2024-02-26T13:15:16;14.70;99.90
15199;DHT22;7700;48.654;9.070;2024-02-26T13:17:43;14.60;99.90
15199;DHT22;7700;48.654;9.070;2024-02-26T13:20:09;14.60;99.80
15199;DHT22;7700;48.654;9.070;2024-02-26T13:22:37;14.50;99.40
15199;DHT22;7700;48.654;9.070;2024-02-26T13:25:04;14.60;99.90
15199;DHT22;7700;48.654;9.070;2024-02-26T13:27:30;14.70;99.90
15199;DHT22;7700;48.654;9.070;2024-02-26T13:30:08;14.90;99.90
15199;DHT22;7700;48.654;9.070;2024-02-26T13:32:36;15.10;99.90
15199;DHT22;7700;48.654;9.070;2024-02-26T13:35:05;15.20;99.70
15199;DHT22;7700;48.654;9.070;2024-02-26T13:37:32;15.50;99.90
15199;DHT22;7700;48.654;9.070;2024-02-26T13:39:57;15.60;98.20
15199;DHT22;7700;48.654;9.070;2024-02-26T13:42:23;15.60;99.00
15199;DHT22;7700;48.654;9.070;2024-02-26T13:44:48;15.70;98.30
15199;DHT22;7700;48.654;9.070;2024-02-26T13:47:14;15.50;98.80
15199;DHT22;7700;48.654;9.070;2024-02-26T13:49:39;15.50;98.60
15199;DHT22;7700;48.654;9.070;2024-02-26T13:52:05;15.50;98.90
15199;DHT22;7700;48.654;9.070;2024-02-26T13:54:31;15.60;98.30
15199;DHT22;7700;48.654;9.070;2024-02-26T13:56:56;15.50;98.60
15199;DHT22;7700;48.654;9.070;2024-02-26T13:59:22;15.70;99.20
15199;DHT22;7700;48.654;9.070;2024-02-26T14:01:47;16.00;98.60
15199;DHT22;7700;48.654;9.070;2024-02-26T14:04:13;15.80;96.50
15199;DHT22;7700;48.654;9.070;2024-02-26T14:06:39;15.60;97.50
15199;DHT22;7700;48.654;9.070;2024-02-26T14:09:05;15.80;97.00
15199;DHT22;7700;48.654;9.070;2024-02-26T14:11:31;15.90;97.50
15199;DHT22;7700;48.654;9.070;2024-02-26T14:13:56;16.00;98.20
15199;DHT22;7700;48.654;9.070;2024-02-26T14:16:22;16.10;97.80
15199;DHT22;7700;48.654;9.070;2024-02-26T14:18:47;16.00;96.80
15199;DHT22;7700;48.654;9.070;2024-02-26T14:21:13;15.90;96.60
15199;DHT22;7700;48.654;9.070;2024-02-26T14:23:39;15.80;96.50
15199;DHT22;7700;48.654;9.070;2024-02-26T14:26:04;15.60;96.60
15199;DHT22;7700;48.654;9.070;2024-02-26T14:28:30;15.50;96.80
15199;DHT22;7700;48.654;9.070;2024-02-26T14:30:57;15.70;96.90
15199;DHT22;7700;48.654;9.070;2024-02-26T14:33:22;15.70;96.20
15199;DHT22;7700;48.654;9.070;2024-02-26T14:35:48;15.50;96.30
15199;DHT22;7700;48.654;9.070;2024-02-26T14:38:13;15.30;97.80
15199;DHT22;7700;48.654;9.070;2024-02-26T14:40:39;15.30;97.50
15199;DHT22;7700;48.654;9.070;2024-02-26T14:43:04;15.20;98.40
15199;DHT22;7700;48.654;9.070;2024-02-26T14:45:30;15.10;97.40
15199;DHT22;7700;48.654;9.070;2024-02-26T14:47:57;15.00;97.80
15199;DHT22;7700;48.654;9.070;2024-02-26T14:50:22;15.00;98.30
15199;DHT22;7700;48.654;9.070;2024-02-26T14:52:48;14.90;98.70
15199;DHT22;7700;48.654;9.070;2024-02-26T14:55:13;14.80;98.40
15199;DHT22;7700;48.654;9.070;2024-02-26T14:57:39;14.70;98.20
15199;DHT22;7700;48.654;9.070;2024-02-26T15:00:05;14.50;99.10
15199;DHT22;7700;48.654;9.070;2024-02-26T15:02:32;14.40;98.60
15199;DHT22;7700;48.654;9.070;2024-02-26T15:04:57;14.20;99.40
15199;DHT22;7700;48.654;9.070;2024-02-26T15:07:23;14.10;99.70
15199;DHT22;7700;48.654;9.070;2024-02-26T15:09:48;13.90;99.90
15199;DHT22;7700;48.654;9.070;2024-02-26T15:12:14;13.90;99.90
15199;DHT22;7700;48.654;9.070;2024-02-26T15:14:40;13.90;99.90
15199;DHT22;7700;48.654;9.070;2024-02-26T15:17:06;13.90;99.90
15199;DHT22;7700;48.654;9.070;2024-02-26T15:19:35;13.90;99.90
15199;DHT22;7700;48.654;9.070;2024-02-26T15:22:01;13.80;99.90
15199;DHT22;7700;48.654;9.070;2024-02-26T15:24:26;13.80;99.90
15199;DHT22;7700;48.654;9.070;2024-02-26T15:26:52;13.70;99.90
15199;DHT22;7700;48.654;9.070;2024-02-26T15:29:18;13.60;99.90
15199;DHT22;7700;48.654;9.070;2024-02-26T15:31:43;13.60;99.90
15199;DHT22;7700;48.654;9.070;2024-02-26T15:34:09;13.60;99.90
15199;DHT22;7700;48.654;9.070;2024-02-26T15:36:35;13.50;99.90
15199;DHT22;7700;48.654;9.070;2024-02-26T15:39:01;13.40;99.90
15199;DHT22;7700;48.654;9.070;2024-02-26T15:41:27;13.30;99.90
15199;DHT22;7700;48.654;9.070;2024-02-26T15:43:53;13.30;99.90
15199;DHT22;7700;48.654;9.070;2024-02-26T15:46:18;13.20;99.90
15199;DHT22;7700;48.654;9.070;2024-02-26T15:48:44;13.20;99.90
15199;DHT22;7700;48.654;9.070;2024-02-26T15:51:21;13.10;99.90
15199;DHT22;7700;48.654;9.070;2024-02-26T15:53:47;13.10;99.90
15199;DHT22;7700;48.654;9.070;2024-02-26T15:56:14;13.00;99.90
15199;DHT22;7700;48.654;9.070;2024-02-26T15:58:40;12.90;99.90